createdAt,value
2018-12-25T00:01:58.412Z,98.80
2018-12-25T00:04:26.632Z,98.80
2018-12-25T00:06:54.856Z,98.60
2018-12-25T00:09:23.094Z,98.80
2018-12-25T00:11:51.306Z,98.80
2018-12-25T00:14:19.509Z,98.80
2018-12-25T00:16:48.491Z,98.80
2018-12-25T00:19:17.510Z,98.80
2018-12-25T00:21:45.776Z,98.80
2018-12-25T00:24:14.723Z,98.40
2018-12-25T00:26:42.986Z,98.50
2018-12-25T00:29:11.182Z,98.60
2018-12-25T00:31:39.430Z,97.30
2018-12-25T00:34:07.676Z,98.70
2018-12-25T00:36:36.644Z,97.70
2018-12-25T00:39:04.902Z,97.40
2018-12-25T00:41:33.097Z,97.90
2018-12-25T00:44:01.309Z,98.90
2018-12-25T00:46:29.550Z,97.40
2018-12-25T00:48:57.811Z,99.10
2018-12-25T00:51:26.043Z,99.60
2018-12-25T00:53:54.398Z,99.60
2018-12-25T00:56:23.266Z,99.90
2018-12-25T00:58:51.498Z,99.90
2018-12-25T01:01:19.743Z,99.90
2018-12-25T01:03:48.759Z,99.90
2018-12-25T01:06:16.947Z,99.90
2018-12-25T01:08:45.167Z,99.80
2018-12-25T01:11:13.422Z,99.90
2018-12-25T01:13:41.668Z,99.50
2018-12-25T01:16:09.903Z,99.90
2018-12-25T01:18:38.157Z,99.20
2018-12-25T01:21:06.369Z,99.90
2018-12-25T01:23:35.346Z,99.90
2018-12-25T01:26:03.592Z,99.90
2018-12-25T01:28:31.850Z,99.90
2018-12-25T01:31:00.054Z,99.90
2018-12-25T01:33:28.290Z,99.90
2018-12-25T01:35:56.518Z,99.20
2018-12-25T01:38:24.758Z,99.90
2018-12-25T01:40:53.010Z,99.90
2018-12-25T01:43:21.985Z,99.90
2018-12-25T01:45:51.013Z,99.90
2018-12-25T01:48:19.211Z,99.90
2018-12-25T01:50:47.425Z,99.90
2018-12-25T01:53:16.405Z,99.80
2018-12-25T01:55:44.668Z,99.40
2018-12-25T01:58:12.857Z,99.60
2018-12-25T02:00:41.073Z,99.90
2018-12-25T02:03:09.319Z,99.60
2018-12-25T02:05:37.591Z,99.70
2018-12-25T02:08:05.872Z,98.30
2018-12-25T02:10:34.055Z,99.00
2018-12-25T02:13:02.264Z,97.10
2018-12-25T02:15:30.475Z,99.30
2018-12-25T02:17:58.723Z,99.00
2018-12-25T02:20:26.922Z,99.90
2018-12-25T02:22:55.134Z,99.90
2018-12-25T02:25:24.108Z,99.60
2018-12-25T02:27:52.335Z,99.60
2018-12-25T02:30:20.580Z,99.80
2018-12-25T02:32:48.794Z,99.40
2018-12-25T02:35:17.002Z,99.30
2018-12-25T02:37:45.257Z,99.50
2018-12-25T02:40:13.500Z,99.50
2018-12-25T02:42:42.514Z,98.60
2018-12-25T02:45:10.713Z,98.60
2018-12-25T02:47:38.937Z,99.20
2018-12-25T02:50:08.014Z,99.20
2018-12-25T02:52:36.265Z,99.20
2018-12-25T02:55:04.510Z,97.90
2018-12-25T02:57:32.761Z,99.60
2018-12-25T03:00:01.782Z,99.80
2018-12-25T03:02:29.993Z,99.40
2018-12-25T03:04:58.237Z,99.90
2018-12-25T03:07:26.451Z,99.60
2018-12-25T03:09:54.668Z,99.80
2018-12-25T03:12:23.693Z,99.20
2018-12-25T03:14:51.900Z,99.00
2018-12-25T03:17:20.167Z,99.60
2018-12-25T03:19:49.125Z,97.90
2018-12-25T03:22:17.391Z,97.80
2018-12-25T03:24:46.393Z,99.30
2018-12-25T03:27:14.604Z,99.30
2018-12-25T03:29:42.843Z,99.20
2018-12-25T03:32:11.100Z,99.20
2018-12-25T03:34:40.110Z,98.50
2018-12-25T03:37:09.130Z,95.10
2018-12-25T03:39:37.331Z,95.00
2018-12-25T03:42:05.556Z,99.40
2018-12-25T03:44:34.529Z,99.00
2018-12-25T03:47:02.784Z,99.00
2018-12-25T03:49:31.023Z,99.30
2018-12-25T03:51:59.272Z,99.00
2018-12-25T03:54:28.281Z,97.90
2018-12-25T03:56:56.513Z,97.90
2018-12-25T03:59:24.729Z,99.30
2018-12-25T04:01:52.979Z,98.00
2018-12-25T04:04:21.226Z,99.20
2018-12-25T04:06:49.467Z,99.00
2018-12-25T04:09:17.672Z,97.70
2018-12-25T04:11:45.879Z,97.50
2018-12-25T04:14:14.135Z,98.20
2018-12-25T04:16:42.369Z,98.40
2018-12-25T04:19:10.586Z,98.50
2018-12-25T04:21:38.840Z,97.10
2018-12-25T04:24:07.048Z,98.80
2018-12-25T04:26:35.256Z,98.60
2018-12-25T04:29:04.235Z,99.20
2018-12-25T04:31:32.473Z,99.20
2018-12-25T04:34:00.724Z,98.40
2018-12-25T04:36:28.963Z,99.30
2018-12-25T04:38:57.222Z,99.20
2018-12-25T04:41:25.460Z,96.00
2018-12-25T04:43:53.676Z,99.40
2018-12-25T04:46:21.914Z,99.60
2018-12-25T04:48:50.126Z,99.50
2018-12-25T04:51:18.334Z,99.30
2018-12-25T04:53:47.318Z,99.40
2018-12-25T04:56:15.520Z,99.40
2018-12-25T04:58:43.740Z,97.50
2018-12-25T05:01:11.940Z,99.20
2018-12-25T05:03:40.162Z,99.30
2018-12-25T05:06:08.363Z,98.10
2018-12-25T05:08:36.622Z,99.50
2018-12-25T05:11:04.863Z,99.00
2018-12-25T05:13:33.882Z,99.70
2018-12-25T05:16:02.073Z,99.70
2018-12-25T05:18:30.337Z,99.50
2018-12-25T05:20:58.535Z,99.10
2018-12-25T05:23:26.757Z,99.40
2018-12-25T05:25:55.729Z,98.30
2018-12-25T05:28:23.935Z,98.30
2018-12-25T05:30:52.904Z,99.30
2018-12-25T05:33:21.165Z,99.30
2018-12-25T05:35:49.366Z,99.40
2018-12-25T05:38:18.352Z,99.30
2018-12-25T05:40:46.554Z,99.20
2018-12-25T05:43:14.773Z,99.20
2018-12-25T05:45:43.015Z,99.00
2018-12-25T05:48:11.269Z,99.20
2018-12-25T05:50:46.691Z,97.60
2018-12-25T05:53:08.464Z,97.30
2018-12-25T05:55:36.667Z,98.90
2018-12-25T05:58:04.875Z,98.90
2018-12-25T06:00:33.081Z,98.80
2018-12-25T06:03:01.337Z,98.10
2018-12-25T06:05:29.581Z,98.80
2018-12-25T06:07:57.968Z,98.80
2018-12-25T06:10:26.076Z,98.70
2018-12-25T06:12:55.063Z,98.70
2018-12-25T06:15:24.081Z,98.60
2018-12-25T06:17:52.295Z,98.60
2018-12-25T06:20:20.547Z,97.90
2018-12-25T06:22:48.785Z,98.50
2018-12-25T06:25:17.022Z,99.00
2018-12-25T06:27:45.231Z,99.00
2018-12-25T06:30:13.481Z,98.90
2018-12-25T06:32:42.498Z,98.80
2018-12-25T06:35:10.696Z,98.80
2018-12-25T06:37:39.718Z,99.70
2018-12-25T06:40:07.943Z,99.70
2018-12-25T06:42:36.161Z,99.90
2018-12-25T06:45:04.427Z,99.90
2018-12-25T06:47:33.395Z,99.70
2018-12-25T06:50:01.641Z,99.70
2018-12-25T06:52:29.897Z,99.40
2018-12-25T06:54:58.099Z,99.30
2018-12-25T06:57:26.334Z,99.30
2018-12-25T06:59:54.585Z,99.30
2018-12-25T07:02:23.604Z,99.50
2018-12-25T07:04:51.800Z,99.20
2018-12-25T07:07:20.057Z,99.20
2018-12-25T07:09:48.252Z,98.80
2018-12-25T07:12:16.524Z,98.80
2018-12-25T07:14:44.769Z,99.90
2018-12-25T07:17:13.790Z,99.90
2018-12-25T07:19:42.028Z,99.90
2018-12-25T07:22:10.220Z,99.90
2018-12-25T07:24:38.455Z,99.90
2018-12-25T07:27:06.699Z,99.90
2018-12-25T07:29:34.915Z,99.90
2018-12-25T07:32:03.116Z,99.90
2018-12-25T07:34:32.099Z,99.90
2018-12-25T07:37:01.125Z,99.90
2018-12-25T07:39:29.341Z,99.90
2018-12-25T07:41:57.571Z,99.90
2018-12-25T07:44:25.846Z,99.90
2018-12-25T07:46:54.813Z,99.90
2018-12-25T07:49:23.068Z,99.90
2018-12-25T07:51:51.299Z,99.80
2018-12-25T07:54:19.551Z,99.90
2018-12-25T07:56:47.755Z,99.90
2018-12-25T07:59:16.009Z,99.90
2018-12-25T08:01:45.016Z,99.90
2018-12-25T08:04:14.071Z,99.90
2018-12-25T08:06:42.273Z,99.90
2018-12-25T08:09:11.287Z,99.90
2018-12-25T08:11:39.555Z,99.90
2018-12-25T08:14:08.563Z,97.20
2018-12-25T08:16:37.195Z,97.40
2018-12-25T08:19:05.397Z,99.90
2018-12-25T08:21:34.409Z,99.90
2018-12-25T08:24:03.385Z,99.90
2018-12-25T08:26:32.351Z,99.10
2018-12-25T08:29:00.607Z,99.20
2018-12-25T08:31:28.850Z,98.30
2018-12-25T08:33:57.859Z,99.80
2018-12-25T08:36:26.119Z,99.60
2018-12-25T08:38:55.145Z,99.40
2018-12-25T08:41:23.347Z,99.30
2018-12-25T08:43:52.031Z,99.90
2018-12-25T08:46:20.253Z,99.90
2018-12-25T08:48:49.229Z,99.90
2018-12-25T08:51:18.203Z,99.90
2018-12-25T08:53:46.417Z,99.90
2018-12-25T08:56:14.610Z,99.90
2018-12-25T08:58:42.845Z,99.90
2018-12-25T09:01:11.852Z,99.90
2018-12-25T09:03:40.828Z,99.90
2018-12-25T09:06:09.073Z,99.90
2018-12-25T09:08:37.315Z,99.90
2018-12-25T09:11:05.559Z,99.90
2018-12-25T09:13:33.775Z,99.30
2018-12-25T09:16:01.997Z,99.60
2018-12-25T09:18:30.219Z,95.30
2018-12-25T09:20:58.433Z,99.30
2018-12-25T09:23:26.691Z,99.90
2018-12-25T09:25:54.937Z,99.90
2018-12-25T09:28:23.961Z,94.90
2018-12-25T09:30:52.206Z,95.10
2018-12-25T09:33:21.179Z,99.60
2018-12-25T09:35:49.383Z,99.60
2018-12-25T09:38:17.608Z,98.70
2018-12-25T09:40:45.805Z,94.60
2018-12-25T09:43:14.072Z,92.20
2018-12-25T09:45:42.338Z,89.50
2018-12-25T09:48:13.380Z,96.00
2018-12-25T09:50:38.809Z,99.40
2018-12-25T09:53:07.046Z,96.00
2018-12-25T09:55:35.290Z,99.70
2018-12-25T09:58:04.273Z,99.30
2018-12-25T10:00:33.284Z,99.60
2018-12-25T10:03:01.646Z,99.70
2018-12-25T10:05:29.726Z,99.40
2018-12-25T10:07:57.960Z,98.80
2018-12-25T10:10:26.240Z,92.70
2018-12-25T10:12:55.265Z,98.30
2018-12-25T10:15:23.506Z,97.50
2018-12-25T10:17:51.717Z,99.80
2018-12-25T10:20:20.736Z,98.40
2018-12-25T10:22:48.964Z,98.50
2018-12-25T10:25:17.211Z,99.10
2018-12-25T10:27:45.511Z,99.00
2018-12-25T10:30:13.709Z,98.30
2018-12-25T10:32:41.948Z,95.00
2018-12-25T10:35:10.262Z,98.40
2018-12-25T10:37:40.456Z,98.40
2018-12-25T10:40:07.465Z,98.40
2018-12-25T10:42:35.666Z,98.50
2018-12-25T10:45:03.935Z,98.90
2018-12-25T10:47:32.149Z,99.00
2018-12-25T10:50:00.419Z,98.90
2018-12-25T10:52:28.669Z,94.10
2018-12-25T10:54:56.878Z,97.10
2018-12-25T10:57:25.131Z,95.70
2018-12-25T10:59:53.359Z,97.10
2018-12-25T11:02:22.373Z,96.60
2018-12-25T11:04:50.575Z,96.60
2018-12-25T11:07:18.822Z,96.20
2018-12-25T11:09:47.020Z,96.20
2018-12-25T11:12:15.236Z,97.30
2018-12-25T11:14:43.451Z,96.30
2018-12-25T11:17:11.677Z,97.40
2018-12-25T11:19:43.133Z,96.30
2018-12-25T11:22:19.656Z,96.80
2018-12-25T11:24:39.635Z,80.30
2018-12-25T11:27:07.857Z,95.10
2018-12-25T11:29:36.060Z,94.90
2018-12-25T11:32:05.045Z,95.60
2018-12-25T11:34:34.023Z,95.20
2018-12-25T11:37:02.285Z,95.20
2018-12-25T11:39:30.529Z,96.10
2018-12-25T11:41:58.742Z,96.50
2018-12-25T11:44:26.953Z,96.60
2018-12-25T11:46:55.930Z,95.60
2018-12-25T11:49:24.152Z,95.60
2018-12-25T11:51:52.443Z,95.30
2018-12-25T11:54:20.645Z,96.00
2018-12-25T11:56:48.887Z,74.60
2018-12-25T11:59:17.101Z,96.10
2018-12-25T12:01:45.312Z,96.20
2018-12-25T12:04:14.293Z,95.30
2018-12-25T12:06:43.271Z,95.30
2018-12-25T12:09:11.479Z,95.30
2018-12-25T12:11:39.691Z,93.30
2018-12-25T12:14:07.943Z,95.50
2018-12-25T12:16:36.141Z,95.90
2018-12-25T12:19:04.399Z,94.00
2018-12-25T12:21:32.609Z,95.30
2018-12-25T12:24:00.814Z,86.90
2018-12-25T12:26:29.070Z,95.60
2018-12-25T12:28:57.280Z,95.10
2018-12-25T12:31:26.307Z,93.30
2018-12-25T12:33:54.545Z,93.60
2018-12-25T12:36:22.761Z,90.70
2018-12-25T12:38:50.960Z,95.00
2018-12-25T12:41:19.950Z,95.30
2018-12-25T12:43:48.213Z,95.70
2018-12-25T12:46:16.474Z,95.50
2018-12-25T12:48:44.713Z,89.80
2018-12-25T12:51:12.923Z,94.30
2018-12-25T12:53:41.133Z,95.40
2018-12-25T12:56:09.405Z,91.40
2018-12-25T12:58:37.651Z,92.40
2018-12-25T13:01:05.925Z,95.40
2018-12-25T13:03:34.888Z,94.20
2018-12-25T13:06:03.855Z,81.10
2018-12-25T13:08:32.067Z,80.70
2018-12-25T13:11:01.041Z,96.00
2018-12-25T13:13:29.253Z,96.00
2018-12-25T13:15:57.462Z,95.00
2018-12-25T13:18:25.710Z,95.20
2018-12-25T13:20:53.908Z,78.50
2018-12-25T13:23:22.128Z,94.60
2018-12-25T13:25:50.346Z,95.80
2018-12-25T13:28:18.597Z,95.30
2018-12-25T13:30:47.592Z,96.30
2018-12-25T13:33:16.578Z,88.00
2018-12-25T13:35:45.559Z,94.60
2018-12-25T13:38:13.776Z,94.60
2018-12-25T13:40:41.983Z,95.60
2018-12-25T13:43:10.224Z,95.90
2018-12-25T13:45:38.468Z,96.20
2018-12-25T13:48:06.670Z,95.40
2018-12-25T13:50:34.926Z,95.50
2018-12-25T13:53:03.525Z,94.70
2018-12-25T13:55:31.404Z,84.70
2018-12-25T13:58:00.406Z,92.80
2018-12-25T14:00:28.653Z,92.90
2018-12-25T14:02:57.663Z,94.70
2018-12-25T14:05:25.920Z,94.70
2018-12-25T14:07:54.164Z,92.80
2018-12-25T14:10:22.386Z,88.10
2018-12-25T14:12:51.390Z,90.10
2018-12-25T14:15:19.641Z,90.20
2018-12-25T14:17:47.852Z,92.40
2018-12-25T14:20:16.076Z,93.40
2018-12-25T14:22:44.287Z,78.50
2018-12-25T14:25:12.562Z,93.10
2018-12-25T14:27:40.802Z,94.20
2018-12-25T14:30:09.041Z,87.70
2018-12-25T14:32:37.254Z,94.80
2018-12-25T14:35:05.505Z,82.40
2018-12-25T14:37:33.769Z,77.60
2018-12-25T14:40:01.968Z,81.80
2018-12-25T14:42:30.191Z,93.60
2018-12-25T14:44:59.210Z,94.20
2018-12-25T14:47:27.463Z,94.20
2018-12-25T14:49:56.433Z,92.10
2018-12-25T14:52:24.706Z,91.50
2018-12-25T14:54:53.794Z,82.50
2018-12-25T14:57:21.945Z,93.90
2018-12-25T14:59:50.147Z,93.90
2018-12-25T15:02:18.405Z,94.10
2018-12-25T15:04:46.621Z,94.10
2018-12-25T15:07:15.646Z,92.10
2018-12-25T15:09:43.883Z,92.20
2018-12-25T15:12:12.131Z,93.70
2018-12-25T15:14:40.376Z,93.40
2018-12-25T15:17:08.623Z,93.10
2018-12-25T15:19:36.834Z,92.80
2018-12-25T15:22:05.047Z,93.30
2018-12-25T15:24:33.271Z,93.30
2018-12-25T15:27:01.475Z,92.60
2018-12-25T15:29:29.741Z,87.00
2018-12-25T15:31:57.961Z,91.50
2018-12-25T15:34:26.293Z,91.80
2018-12-25T15:36:54.506Z,89.40
2018-12-25T15:39:22.817Z,90.30
2018-12-25T15:41:51.018Z,93.10
2018-12-25T15:44:19.254Z,93.90
2018-12-25T15:46:47.506Z,93.60
2018-12-25T15:49:15.741Z,93.70
2018-12-25T15:51:44.001Z,93.50
2018-12-25T15:54:13.002Z,93.80
2018-12-25T15:56:41.980Z,92.90
2018-12-25T15:59:10.951Z,94.10
2018-12-25T16:01:39.212Z,94.10
2018-12-25T16:04:07.449Z,93.60
2018-12-25T16:06:36.419Z,94.10
2018-12-25T16:09:05.412Z,93.00
2018-12-25T16:11:34.391Z,87.00
2018-12-25T16:14:02.648Z,86.00
2018-12-25T16:16:30.856Z,91.70
2018-12-25T16:18:59.071Z,92.80
2018-12-25T16:21:27.316Z,92.40
2018-12-25T16:23:55.536Z,93.80
2018-12-25T16:26:23.778Z,94.10
2018-12-25T16:28:51.978Z,92.70
2018-12-25T16:31:20.228Z,93.40
2018-12-25T16:33:49.221Z,89.70
2018-12-25T16:36:18.205Z,94.20
2018-12-25T16:38:47.216Z,94.00
2018-12-25T16:41:16.246Z,88.60
2018-12-25T16:43:44.483Z,88.80
2018-12-25T16:46:12.717Z,92.50
2018-12-25T16:48:40.967Z,85.40
2018-12-25T16:51:09.225Z,85.90
2018-12-25T16:53:37.474Z,93.50
2018-12-25T16:56:05.723Z,93.70
2018-12-25T16:58:33.920Z,93.40
2018-12-25T17:01:02.186Z,93.50
2018-12-25T17:03:30.397Z,93.80
2018-12-25T17:05:59.416Z,86.60
2018-12-25T17:08:27.654Z,86.40
2018-12-25T17:10:55.866Z,92.80
2018-12-25T17:13:24.126Z,93.60
2018-12-25T17:15:53.129Z,92.90
2018-12-25T17:18:21.351Z,92.90
2018-12-25T17:20:49.573Z,91.50
2018-12-25T17:23:18.621Z,93.50
2018-12-25T17:25:46.806Z,93.40
2018-12-25T17:28:15.082Z,92.90
2018-12-25T17:30:43.321Z,91.70
2018-12-25T17:33:11.539Z,92.70
2018-12-25T17:35:39.795Z,81.70
2018-12-25T17:38:08.031Z,91.30
2018-12-25T17:40:36.273Z,84.50
2018-12-25T17:43:04.466Z,91.50
2018-12-25T17:45:33.471Z,87.00
2018-12-25T17:48:01.717Z,86.90
2018-12-25T17:50:29.935Z,91.30
2018-12-25T17:52:58.146Z,92.70
2018-12-25T17:55:26.371Z,92.90
2018-12-25T17:57:55.372Z,87.10
2018-12-25T18:00:23.604Z,86.70
2018-12-25T18:02:51.856Z,90.60
2018-12-25T18:05:20.047Z,89.90
2018-12-25T18:07:48.312Z,91.40
2018-12-25T18:10:16.549Z,93.40
2018-12-25T18:12:45.535Z,89.10
2018-12-25T18:15:14.506Z,91.80
2018-12-25T18:17:42.772Z,91.80
2018-12-25T18:20:11.026Z,92.20
2018-12-25T18:22:39.284Z,92.80
2018-12-25T18:25:07.507Z,84.60
2018-12-25T18:27:35.715Z,92.90
2018-12-25T18:30:04.746Z,92.50
2018-12-25T18:32:32.944Z,92.40
2018-12-25T18:35:01.171Z,91.20
2018-12-25T18:37:29.392Z,90.50
2018-12-25T18:39:57.629Z,91.20
2018-12-25T18:42:26.627Z,88.20
2018-12-25T18:44:54.884Z,88.10
2018-12-25T18:47:23.849Z,92.10
2018-12-25T18:49:52.078Z,92.10
2018-12-25T18:52:20.358Z,91.80
2018-12-25T18:54:48.566Z,86.40
2018-12-25T18:57:16.792Z,90.70
2018-12-25T18:59:45.001Z,91.70
2018-12-25T19:02:13.230Z,92.30
2018-12-25T19:04:42.208Z,92.50
2018-12-25T19:07:10.492Z,92.20
2018-12-25T19:09:38.730Z,91.50
2018-12-25T19:12:06.994Z,89.80
2018-12-25T19:14:35.218Z,90.00
2018-12-25T19:17:04.267Z,93.00
2018-12-25T19:19:32.499Z,93.00
2018-12-25T19:22:01.526Z,92.80
2018-12-25T19:24:36.281Z,92.80
2018-12-25T19:26:57.939Z,91.80
2018-12-25T19:29:26.999Z,93.30
2018-12-25T19:31:55.259Z,93.00
2018-12-25T19:34:23.520Z,91.90
2018-12-25T19:36:51.786Z,92.00
2018-12-25T19:39:20.811Z,92.10
2018-12-25T19:41:49.017Z,92.10
2018-12-25T19:44:17.296Z,92.00
2018-12-25T19:46:46.303Z,91.30
2018-12-25T19:49:14.586Z,91.20
2018-12-25T19:51:42.779Z,91.80
2018-12-25T19:54:10.987Z,91.80
2018-12-25T19:56:39.255Z,91.70
2018-12-25T19:59:07.510Z,91.50
2018-12-25T20:01:36.491Z,91.90
2018-12-25T20:04:05.462Z,91.70
2018-12-25T20:06:37.255Z,91.70
2018-12-25T20:09:18.096Z,91.50
2018-12-25T20:12:02.936Z,91.60
2018-12-25T20:14:39.832Z,89.20
2018-12-25T20:17:08.057Z,91.60
2018-12-25T20:19:47.849Z,91.50
2018-12-25T20:22:21.894Z,90.50
2018-12-25T20:25:05.784Z,90.30
2018-12-25T20:34:08.308Z,91.70
2018-12-25T20:36:56.277Z,92.40
2018-12-25T20:39:42.884Z,91.10
2018-12-25T20:42:16.824Z,91.30
2018-12-25T20:44:54.472Z,91.30
2018-12-25T20:47:26.298Z,91.20
2018-12-25T20:50:07.103Z,89.80
2018-12-25T20:59:25.254Z,90.90
2018-12-25T21:01:56.894Z,91.10
2018-12-25T21:04:26.852Z,90.40
2018-12-25T21:07:01.790Z,90.30
2018-12-25T21:09:35.913Z,90.20
2018-12-25T21:12:10.736Z,90.50
2018-12-25T21:17:55.311Z,90.80
2018-12-25T21:20:39.227Z,91.50
2018-12-25T21:23:20.226Z,91.10
2018-12-25T21:28:50.083Z,91.80
2018-12-25T21:31:18.393Z,92.60
2018-12-25T21:33:46.603Z,92.90
2018-12-25T21:36:14.804Z,92.60
2018-12-25T21:38:43.079Z,92.60
2018-12-25T21:41:11.355Z,92.20
2018-12-25T21:43:39.615Z,91.70
2018-12-25T21:46:07.849Z,91.70
2018-12-25T21:48:36.065Z,91.80
2018-12-25T21:51:04.341Z,92.60
2018-12-25T21:53:33.305Z,93.30
2018-12-25T21:56:01.532Z,93.30
2018-12-25T21:58:29.764Z,92.30
2018-12-25T22:00:58.751Z,94.10
2018-12-25T22:03:27.764Z,92.60
2018-12-25T22:05:56.818Z,93.60
2018-12-25T22:08:24.979Z,93.60
2018-12-25T22:10:53.237Z,92.70
2018-12-25T22:13:21.447Z,92.70
2018-12-25T22:15:49.678Z,93.10
2018-12-25T22:18:17.883Z,94.60
2018-12-25T22:20:46.121Z,93.30
2018-12-25T22:23:14.381Z,92.70
2018-12-25T22:25:43.417Z,93.80
2018-12-25T22:28:12.411Z,94.00
2018-12-25T22:30:40.610Z,93.90
2018-12-25T22:33:08.831Z,93.90
2018-12-25T22:35:37.049Z,93.50
2018-12-25T22:38:06.074Z,93.20
2018-12-25T22:40:34.272Z,93.20
2018-12-25T22:43:02.542Z,93.00
2018-12-25T22:45:31.517Z,93.70
2018-12-25T22:47:59.738Z,93.70
2018-12-25T22:50:28.070Z,94.30
2018-12-25T22:52:56.221Z,93.80
2018-12-25T22:55:24.428Z,95.90
2018-12-25T22:57:52.703Z,95.60
2018-12-25T23:00:20.958Z,94.10
2018-12-25T23:02:49.241Z,94.30
2018-12-25T23:05:17.482Z,94.50
2018-12-25T23:07:45.738Z,96.40
2018-12-25T23:10:14.008Z,94.60
2018-12-25T23:12:43.012Z,95.20
2018-12-25T23:15:11.267Z,95.10
2018-12-25T23:17:39.472Z,94.20
2018-12-25T23:20:07.790Z,93.70
2018-12-25T23:22:35.992Z,94.40
2018-12-25T23:25:05.051Z,93.90
2018-12-25T23:27:33.288Z,93.80
2018-12-25T23:30:02.263Z,93.90
2018-12-25T23:32:31.298Z,94.40
2018-12-25T23:34:59.678Z,94.30
2018-12-25T23:37:28.533Z,94.60
2018-12-25T23:39:57.564Z,93.90
2018-12-25T23:42:25.779Z,93.90
2018-12-25T23:44:53.988Z,93.90
2018-12-25T23:47:22.970Z,94.10
2018-12-25T23:49:51.946Z,94.80
2018-12-25T23:52:20.175Z,94.90
2018-12-25T23:54:48.373Z,94.70
2018-12-25T23:57:16.589Z,94.20
2018-12-25T23:59:45.622Z,93.90
